createdAt,value
2019-06-10T00:00:50.854Z,0.00
2019-06-10T00:01:48.703Z,0.00
2019-06-10T00:03:42.245Z,0.00
2019-06-10T00:04:41.685Z,0.00
2019-06-10T00:06:34.185Z,0.00
2019-06-10T00:07:34.132Z,0.00
2019-06-10T00:09:26.913Z,0.00
2019-06-10T00:10:26.837Z,0.00
2019-06-10T00:12:20.949Z,0.00
2019-06-10T00:13:20.889Z,0.00
2019-06-10T00:15:12.323Z,0.00
2019-06-10T00:16:12.250Z,0.00
2019-06-10T00:18:24.993Z,0.00
2019-06-10T00:19:06.862Z,0.00
2019-06-10T00:20:57.751Z,0.00
2019-06-10T00:21:57.671Z,0.00
2019-06-10T00:23:51.820Z,0.00
2019-06-10T00:24:52.188Z,0.00
2019-06-10T00:26:43.207Z,0.00
2019-06-10T00:27:43.146Z,0.00
2019-06-10T00:29:35.931Z,0.00
2019-06-10T00:30:35.860Z,0.00
2019-06-10T00:32:28.735Z,0.00
2019-06-10T00:33:30.743Z,0.00
2019-06-10T00:35:21.380Z,0.00
2019-06-10T00:36:21.640Z,0.00
2019-06-10T00:38:14.570Z,0.00
2019-06-10T00:39:14.023Z,0.00
2019-06-10T00:41:07.644Z,0.00
2019-06-10T00:42:08.382Z,0.00
2019-06-10T00:44:01.814Z,0.00
2019-06-10T00:45:02.664Z,0.00
2019-06-10T00:46:52.253Z,0.00
2019-06-10T00:48:04.458Z,0.00
2019-06-10T00:49:44.963Z,0.00
2019-06-10T00:50:44.884Z,0.00
2019-06-10T00:52:37.656Z,0.00
2019-06-10T00:53:37.595Z,0.00
2019-06-10T00:55:31.439Z,0.00
2019-06-10T00:56:30.853Z,0.00
2019-06-10T00:58:23.090Z,0.00
2019-06-10T00:59:23.044Z,0.00
2019-06-10T01:01:15.815Z,0.00
2019-06-10T01:02:15.738Z,0.00
2019-06-10T01:04:11.351Z,0.00
2019-06-10T01:05:09.856Z,0.00
2019-06-10T01:07:02.495Z,0.00
2019-06-10T01:08:01.704Z,0.00
2019-06-10T01:09:53.965Z,0.00
2019-06-10T01:10:53.880Z,0.00
2019-06-10T01:12:46.654Z,0.00
2019-06-10T01:13:46.594Z,0.00
2019-06-10T01:15:41.655Z,0.00
2019-06-10T01:16:41.141Z,0.00
2019-06-10T01:18:38.304Z,0.00
2019-06-10T01:19:32.007Z,0.00
2019-06-10T01:21:24.802Z,0.00
2019-06-10T01:22:24.723Z,0.00
2019-06-10T01:24:17.582Z,0.00
2019-06-10T01:25:17.840Z,0.00
2019-06-10T01:27:11.887Z,0.00
2019-06-10T01:28:12.563Z,0.00
2019-06-10T01:30:09.649Z,0.00
2019-06-10T01:31:02.870Z,0.00
2019-06-10T01:32:55.647Z,0.00
2019-06-10T01:33:55.588Z,0.00
2019-06-10T01:35:48.367Z,0.00
2019-06-10T01:36:50.779Z,0.00
2019-06-10T01:38:41.091Z,0.00
2019-06-10T01:39:41.282Z,0.00
2019-06-10T01:41:33.787Z,0.00
2019-06-10T01:42:33.722Z,0.00
2019-06-10T01:44:26.488Z,0.00
2019-06-10T01:45:26.425Z,0.00
2019-06-10T01:47:21.435Z,0.00
2019-06-10T01:48:21.033Z,0.00
2019-06-10T01:50:14.299Z,0.00
2019-06-10T01:51:13.129Z,0.00
2019-06-10T01:53:04.657Z,0.00
2019-06-10T01:55:18.244Z,0.00
2019-06-10T01:56:18.208Z,0.00
2019-06-10T01:58:12.789Z,0.00
2019-06-10T01:59:11.936Z,0.00
2019-06-10T02:01:02.639Z,0.00
2019-06-10T02:02:02.554Z,0.00
2019-06-10T02:03:55.322Z,0.00
2019-06-10T02:04:55.261Z,0.00
2019-06-10T02:06:48.045Z,0.00
2019-06-10T02:07:47.967Z,0.00
2019-06-10T02:09:41.149Z,0.00
2019-06-10T02:10:41.516Z,0.00
2019-06-10T02:12:33.495Z,0.00
2019-06-10T02:13:33.661Z,0.00
2019-06-10T02:15:26.205Z,0.00
2019-06-10T02:16:26.124Z,0.00
2019-06-10T02:18:21.212Z,0.00
2019-06-10T02:19:18.830Z,0.00
2019-06-10T02:21:14.619Z,0.00
2019-06-10T02:22:13.659Z,0.00
2019-06-10T02:24:04.325Z,0.00
2019-06-10T02:25:04.307Z,0.00
2019-06-10T02:26:57.054Z,0.00
2019-06-10T02:27:56.988Z,0.00
2019-06-10T02:29:50.740Z,0.00
2019-06-10T02:30:54.433Z,4.00
2019-06-10T02:32:42.976Z,4.00
2019-06-10T02:33:42.400Z,4.00
2019-06-10T02:35:44.171Z,0.00
2019-06-10T02:36:36.806Z,0.00
2019-06-10T02:38:34.041Z,0.00
2019-06-10T02:39:33.892Z,0.00
2019-06-10T02:41:28.339Z,4.00
2019-06-10T02:42:26.848Z,4.00
2019-06-10T02:44:17.235Z,4.00
2019-06-10T02:45:15.171Z,4.00
2019-06-10T02:47:06.042Z,4.00
2019-06-10T02:48:05.981Z,8.00
2019-06-10T02:50:03.349Z,4.00
2019-06-10T02:50:58.679Z,4.00
2019-06-10T02:52:53.082Z,8.00
2019-06-10T02:53:53.791Z,4.00
2019-06-10T02:55:44.185Z,8.00
2019-06-10T02:56:44.542Z,8.00
2019-06-10T02:58:39.546Z,8.00
2019-06-10T02:59:36.846Z,8.00
2019-06-10T03:01:34.212Z,8.00
2019-06-10T03:02:33.036Z,8.00
2019-06-10T03:04:31.377Z,8.00
2019-06-10T03:05:27.002Z,12.00
2019-06-10T03:07:15.881Z,16.00
2019-06-10T03:08:16.191Z,12.00
2019-06-10T03:10:07.897Z,20.00
2019-06-10T03:11:07.820Z,24.00
2019-06-10T03:13:02.381Z,36.00
2019-06-10T03:14:02.540Z,40.00
2019-06-10T03:15:53.308Z,40.00
2019-06-10T03:16:53.243Z,36.00
2019-06-10T03:18:46.045Z,32.00
2019-06-10T03:19:50.423Z,28.00
2019-06-10T03:21:38.788Z,28.00
2019-06-10T03:22:38.689Z,32.00
2019-06-10T03:24:32.668Z,44.00
2019-06-10T03:25:32.698Z,52.00
2019-06-10T03:27:24.804Z,64.00
2019-06-10T03:28:25.231Z,72.00
2019-06-10T03:30:20.836Z,96.00
2019-06-10T03:31:15.822Z,104.00
2019-06-10T03:33:07.788Z,112.00
2019-06-10T03:34:07.709Z,112.00
2019-06-10T03:36:02.981Z,108.00
2019-06-10T03:37:02.481Z,120.00
2019-06-10T03:38:53.862Z,148.00
2019-06-10T03:39:53.207Z,156.00
2019-06-10T03:41:45.957Z,136.00
2019-06-10T03:42:45.920Z,116.00
2019-06-10T03:44:37.774Z,96.00
2019-06-10T03:45:37.674Z,108.00
2019-06-10T03:47:32.458Z,148.00
2019-06-10T03:48:32.588Z,144.00
2019-06-10T03:50:25.600Z,112.00
2019-06-10T03:51:24.339Z,104.00
2019-06-10T03:53:17.145Z,112.00
2019-06-10T03:54:17.097Z,112.00
2019-06-10T03:56:08.634Z,84.00
2019-06-10T03:57:08.559Z,80.00
2019-06-10T03:59:02.868Z,96.00
2019-06-10T04:00:02.241Z,112.00
2019-06-10T04:01:54.065Z,112.00
2019-06-10T04:02:54.006Z,108.00
2019-06-10T04:04:46.826Z,108.00
2019-06-10T04:05:46.707Z,120.00
2019-06-10T04:07:40.124Z,168.00
2019-06-10T04:08:39.421Z,196.00
2019-06-10T04:10:32.500Z,228.00
2019-06-10T04:11:35.252Z,240.00
2019-06-10T04:13:25.857Z,276.00
2019-06-10T04:14:26.637Z,296.00
2019-06-10T04:16:17.686Z,368.00
2019-06-10T04:17:17.623Z,400.00
2019-06-10T04:19:12.919Z,460.00
2019-06-10T04:20:13.149Z,500.00
2019-06-10T04:22:03.116Z,604.00
2019-06-10T04:23:03.061Z,668.00
2019-06-10T04:24:55.826Z,724.00
2019-06-10T04:25:55.749Z,716.00
2019-06-10T04:27:48.526Z,652.00
2019-06-10T04:28:48.454Z,584.00
2019-06-10T04:30:43.257Z,460.00
2019-06-10T04:31:42.476Z,432.00
2019-06-10T04:33:33.977Z,404.00
2019-06-10T04:34:33.881Z,400.00
2019-06-10T04:36:28.175Z,432.00
2019-06-10T04:37:28.087Z,464.00
2019-06-10T04:39:20.501Z,568.00
2019-06-10T04:40:21.084Z,640.00
2019-06-10T04:42:13.005Z,768.00
2019-06-10T04:43:12.484Z,816.00
2019-06-10T04:45:04.894Z,876.00
2019-06-10T04:46:04.821Z,888.00
2019-06-10T04:47:57.617Z,864.00
2019-06-10T04:48:57.529Z,848.00
2019-06-10T04:50:53.163Z,852.00
2019-06-10T04:51:52.247Z,872.00
2019-06-10T04:53:43.629Z,920.00
2019-06-10T04:54:42.959Z,952.00
2019-06-10T04:56:35.743Z,1024.00
2019-06-10T04:57:35.684Z,1048.00
2019-06-10T04:59:29.160Z,996.00
2019-06-10T05:00:29.126Z,940.00
2019-06-10T05:02:23.783Z,808.00
2019-06-10T05:03:23.541Z,720.00
2019-06-10T05:05:13.295Z,588.00
2019-06-10T05:06:13.079Z,556.00
2019-06-10T05:08:05.633Z,536.00
2019-06-10T05:09:05.535Z,512.00
2019-06-10T05:10:58.327Z,468.00
2019-06-10T05:11:58.238Z,444.00
2019-06-10T05:13:53.244Z,404.00
2019-06-10T05:14:52.666Z,396.00
2019-06-10T05:16:43.726Z,380.00
2019-06-10T05:17:44.013Z,364.00
2019-06-10T05:19:36.476Z,304.00
2019-06-10T05:20:51.346Z,276.00
2019-06-10T05:22:30.612Z,276.00
2019-06-10T05:23:29.946Z,304.00
2019-06-10T05:25:22.762Z,368.00
2019-06-10T05:26:24.214Z,416.00
2019-06-10T05:28:14.598Z,540.00
2019-06-10T05:29:14.532Z,596.00
2019-06-10T05:31:07.326Z,668.00
2019-06-10T05:32:07.242Z,680.00
2019-06-10T05:34:02.233Z,748.00
2019-06-10T05:34:59.981Z,840.00
2019-06-10T05:36:52.738Z,1088.00
2019-06-10T05:37:52.801Z,1132.00
2019-06-10T05:39:45.508Z,1080.00
2019-06-10T05:40:45.405Z,1052.00
2019-06-10T05:42:38.214Z,1064.00
2019-06-10T05:43:38.133Z,1092.00
2019-06-10T05:45:32.762Z,1120.00
2019-06-10T05:46:33.383Z,1152.00
2019-06-10T05:48:25.006Z,1096.00
2019-06-10T05:49:25.845Z,1076.00
2019-06-10T05:51:16.424Z,1040.00
2019-06-10T05:52:16.302Z,1020.00
2019-06-10T05:54:09.102Z,1040.00
2019-06-10T05:55:09.020Z,1096.00
2019-06-10T05:57:02.662Z,1312.00
2019-06-10T05:58:02.561Z,1460.00
2019-06-10T05:59:54.531Z,1696.00
2019-06-10T06:00:54.453Z,1784.00
2019-06-10T06:02:47.224Z,1932.00
2019-06-10T06:03:47.170Z,1936.00
2019-06-10T06:05:39.961Z,2008.00
2019-06-10T06:06:42.503Z,2160.00
2019-06-10T06:08:35.327Z,2384.00
2019-06-10T06:09:35.128Z,2424.00
2019-06-10T06:11:25.376Z,2472.00
2019-06-10T06:12:25.538Z,2564.00
2019-06-10T06:14:18.112Z,2908.00
2019-06-10T06:15:18.053Z,2968.00
2019-06-10T06:17:12.750Z,2836.00
2019-06-10T06:18:13.904Z,3020.00
2019-06-10T06:20:03.612Z,2440.00
2019-06-10T06:21:20.915Z,2296.00
2019-06-10T06:22:56.298Z,2080.00
2019-06-10T06:23:56.222Z,1992.00
2019-06-10T06:25:49.014Z,1948.00
2019-06-10T06:26:48.938Z,2020.00
2019-06-10T06:28:43.119Z,2124.00
2019-06-10T06:29:43.144Z,2120.00
2019-06-10T06:31:36.054Z,2144.00
2019-06-10T06:32:36.318Z,2192.00
2019-06-10T06:34:28.348Z,2360.00
2019-06-10T06:35:28.268Z,2444.00
2019-06-10T06:37:19.934Z,2628.00
2019-06-10T06:38:22.256Z,2740.00
2019-06-10T06:40:13.231Z,3100.00
2019-06-10T06:41:13.740Z,3304.00
2019-06-10T06:43:04.487Z,3472.00
2019-06-10T06:44:04.449Z,3484.00
2019-06-10T06:45:57.217Z,3608.00
2019-06-10T06:46:57.136Z,3720.00
2019-06-10T06:48:49.946Z,3972.00
2019-06-10T06:49:49.870Z,4140.00
2019-06-10T06:51:54.215Z,5144.00
2019-06-10T06:53:15.373Z,5144.00
2019-06-10T06:54:36.572Z,5540.00
2019-06-10T06:55:36.565Z,5796.00
2019-06-10T06:57:28.904Z,4136.00
2019-06-10T06:58:29.100Z,3876.00
2019-06-10T07:00:38.275Z,3420.00
2019-06-10T07:01:25.487Z,3172.00
2019-06-10T07:03:13.505Z,2708.00
2019-06-10T07:04:13.447Z,2592.00
2019-06-10T07:06:05.457Z,2644.00
2019-06-10T07:07:05.349Z,2776.00
2019-06-10T07:09:04.500Z,3220.00
2019-06-10T07:09:58.057Z,3604.00
2019-06-10T07:11:52.874Z,4732.00
2019-06-10T07:12:52.346Z,5480.00
2019-06-10T07:14:44.950Z,7596.00
2019-06-10T07:15:47.063Z,10132.00
2019-06-10T07:17:37.927Z,22336.00
2019-06-10T07:18:40.947Z,10532.00
2019-06-10T07:20:28.986Z,14060.00
2019-06-10T07:21:28.940Z,22528.00
2019-06-10T07:23:22.527Z,20096.00
2019-06-10T07:24:23.159Z,12896.00
2019-06-10T07:26:14.434Z,12008.00
2019-06-10T07:27:14.360Z,9496.00
2019-06-10T07:29:07.147Z,11660.00
2019-06-10T07:30:11.858Z,7944.00
2019-06-10T07:31:59.878Z,5664.00
2019-06-10T07:32:59.806Z,4920.00
2019-06-10T07:34:52.696Z,4352.00
2019-06-10T07:35:56.430Z,4256.00
2019-06-10T07:37:46.079Z,4516.00
2019-06-10T07:38:48.822Z,3612.00
2019-06-10T07:40:39.126Z,3296.00
2019-06-10T07:41:39.193Z,3384.00
2019-06-10T07:43:34.067Z,3704.00
2019-06-10T07:44:33.001Z,4024.00
2019-06-10T07:46:23.495Z,4528.00
2019-06-10T07:47:23.415Z,4512.00
2019-06-10T07:49:16.211Z,4372.00
2019-06-10T07:50:16.140Z,4308.00
2019-06-10T07:52:15.561Z,4452.00
2019-06-10T07:53:08.870Z,4136.00
2019-06-10T07:55:02.473Z,3836.00
2019-06-10T07:56:03.260Z,3716.00
2019-06-10T07:57:54.516Z,3592.00
2019-06-10T07:58:54.574Z,3736.00
2019-06-10T08:00:48.470Z,4004.00
2019-06-10T08:01:51.426Z,4144.00
2019-06-10T08:03:40.271Z,3488.00
2019-06-10T08:04:42.930Z,3500.00
2019-06-10T08:06:33.495Z,2732.00
2019-06-10T08:07:33.425Z,2632.00
2019-06-10T08:09:25.488Z,3168.00
2019-06-10T08:10:25.371Z,3620.00
2019-06-10T08:12:18.244Z,4212.00
2019-06-10T08:13:18.172Z,4420.00
2019-06-10T08:15:12.482Z,4888.00
2019-06-10T08:16:13.088Z,5188.00
2019-06-10T08:18:04.357Z,5484.00
2019-06-10T08:19:26.317Z,5752.00
2019-06-10T08:20:56.368Z,7832.00
2019-06-10T08:21:56.293Z,9024.00
2019-06-10T08:23:49.071Z,9432.00
2019-06-10T08:24:49.001Z,7616.00
2019-06-10T08:26:43.597Z,8296.00
2019-06-10T08:27:45.373Z,8796.00
2019-06-10T08:29:34.544Z,8608.00
2019-06-10T08:30:35.587Z,8004.00
2019-06-10T08:32:27.277Z,7660.00
2019-06-10T08:33:27.203Z,7364.00
2019-06-10T08:35:32.781Z,7232.00
2019-06-10T08:36:22.256Z,7108.00
2019-06-10T08:38:12.784Z,6984.00
2019-06-10T08:39:15.769Z,6472.00
2019-06-10T08:41:05.447Z,6052.00
2019-06-10T08:42:05.366Z,6316.00
2019-06-10T08:43:58.279Z,6660.00
2019-06-10T08:45:00.041Z,8188.00
2019-06-10T08:46:52.305Z,12064.00
2019-06-10T08:47:50.053Z,12464.00
2019-06-10T08:49:45.805Z,9116.00
2019-06-10T08:50:46.600Z,7484.00
2019-06-10T08:52:51.642Z,7848.00
2019-06-10T08:53:35.528Z,6316.00
2019-06-10T08:55:28.443Z,6068.00
2019-06-10T08:56:28.279Z,6104.00
2019-06-10T08:58:23.054Z,7772.00
2019-06-10T08:59:23.080Z,7872.00
2019-06-10T09:01:15.634Z,10388.00
2019-06-10T09:02:14.099Z,8380.00
2019-06-10T09:04:07.858Z,6288.00
2019-06-10T09:05:06.878Z,6144.00
2019-06-10T09:06:59.676Z,6308.00
2019-06-10T09:07:59.603Z,6460.00
2019-06-10T09:09:53.952Z,6860.00
2019-06-10T09:10:54.938Z,6676.00
2019-06-10T09:12:47.957Z,5844.00
2019-06-10T09:13:47.148Z,5760.00
2019-06-10T09:15:38.737Z,5952.00
2019-06-10T09:16:39.583Z,6496.00
2019-06-10T09:18:33.415Z,6924.00
2019-06-10T09:19:33.029Z,6332.00
2019-06-10T09:21:23.344Z,6212.00
2019-06-10T09:22:23.771Z,6576.00
2019-06-10T09:24:16.078Z,7144.00
2019-06-10T09:25:16.005Z,6784.00
2019-06-10T09:27:08.934Z,6708.00
2019-06-10T09:28:08.737Z,6608.00
2019-06-10T09:30:03.016Z,7992.00
2019-06-10T09:31:04.095Z,8052.00
2019-06-10T09:32:56.856Z,10196.00
2019-06-10T09:33:56.886Z,9576.00
2019-06-10T09:35:49.563Z,12688.00
2019-06-10T09:36:50.099Z,10692.00
2019-06-10T09:38:41.780Z,9288.00
2019-06-10T09:39:39.824Z,8276.00
2019-06-10T09:41:40.126Z,8136.00
2019-06-10T09:42:33.293Z,8308.00
2019-06-10T09:44:25.235Z,9712.00
2019-06-10T09:45:25.166Z,12272.00
2019-06-10T09:47:17.970Z,12496.00
2019-06-10T09:48:17.900Z,10736.00
2019-06-10T09:50:12.254Z,20768.00
2019-06-10T09:51:12.476Z,22368.00
2019-06-10T09:53:04.168Z,21504.00
2019-06-10T09:54:06.571Z,20512.00
2019-06-10T09:55:56.396Z,18432.00
2019-06-10T09:56:56.302Z,17696.00
2019-06-10T09:58:50.776Z,14512.00
2019-06-10T09:59:54.037Z,12648.00
2019-06-10T10:01:47.283Z,13912.00
2019-06-10T10:02:47.678Z,14696.00
2019-06-10T10:04:37.365Z,12668.00
2019-06-10T10:05:34.647Z,12980.00
2019-06-10T10:07:27.467Z,11104.00
2019-06-10T10:08:27.410Z,10452.00
2019-06-10T10:10:20.310Z,8032.00
2019-06-10T10:11:21.240Z,7108.00
2019-06-10T10:13:13.555Z,10556.00
2019-06-10T10:14:15.957Z,11360.00
2019-06-10T10:16:05.770Z,7384.00
2019-06-10T10:17:05.637Z,9192.00
2019-06-10T10:19:00.668Z,14220.00
2019-06-10T10:19:58.375Z,13936.00
2019-06-10T10:21:56.061Z,13404.00
2019-06-10T10:22:54.201Z,12968.00
2019-06-10T10:24:44.585Z,11904.00
2019-06-10T10:25:46.258Z,10908.00
2019-06-10T10:27:36.691Z,8708.00
2019-06-10T10:28:36.740Z,8332.00
2019-06-10T10:30:29.437Z,8096.00
2019-06-10T10:31:29.371Z,7948.00
2019-06-10T10:33:26.917Z,7952.00
2019-06-10T10:34:23.594Z,8248.00
2019-06-10T10:36:15.003Z,8484.00
2019-06-10T10:37:14.894Z,8024.00
2019-06-10T10:39:07.730Z,7256.00
2019-06-10T10:40:07.674Z,6908.00
2019-06-10T10:42:03.130Z,6832.00
2019-06-10T10:43:19.981Z,6596.00
2019-06-10T10:44:58.872Z,6356.00
2019-06-10T10:45:59.723Z,6320.00
2019-06-10T10:47:46.943Z,6100.00
2019-06-10T10:48:47.099Z,5936.00
2019-06-10T10:50:38.718Z,5556.00
2019-06-10T10:51:38.635Z,5460.00
2019-06-10T10:53:32.777Z,5284.00
2019-06-10T10:54:35.940Z,5172.00
2019-06-10T10:56:24.246Z,5092.00
2019-06-10T10:57:24.140Z,5096.00
2019-06-10T10:59:16.922Z,5064.00
2019-06-10T11:00:16.864Z,5028.00
2019-06-10T11:02:09.688Z,4956.00
2019-06-10T11:03:09.635Z,4924.00
2019-06-10T11:05:02.402Z,4928.00
2019-06-10T11:06:02.354Z,4956.00
2019-06-10T11:07:56.704Z,5044.00
2019-06-10T11:08:57.611Z,5108.00
2019-06-10T11:10:49.615Z,5296.00
2019-06-10T11:11:48.916Z,5428.00
2019-06-10T11:13:43.165Z,5672.00
2019-06-10T11:14:42.476Z,5744.00
2019-06-10T11:16:33.394Z,5820.00
2019-06-10T11:17:33.629Z,5820.00
2019-06-10T11:19:26.128Z,5820.00
2019-06-10T11:20:26.189Z,5816.00
2019-06-10T11:22:18.850Z,5764.00
2019-06-10T11:23:18.776Z,5724.00
2019-06-10T11:25:12.562Z,5628.00
2019-06-10T11:26:12.422Z,5592.00
2019-06-10T11:28:04.332Z,5596.00
2019-06-10T11:29:04.259Z,5624.00
2019-06-10T11:30:58.621Z,5748.00
2019-06-10T11:31:58.620Z,5828.00
2019-06-10T11:33:51.350Z,5956.00
2019-06-10T11:34:49.876Z,6020.00
2019-06-10T11:36:42.757Z,6128.00
2019-06-10T11:37:42.887Z,6184.00
2019-06-10T11:39:38.604Z,6252.00
2019-06-10T11:40:35.197Z,6292.00
2019-06-10T11:42:28.003Z,6384.00
2019-06-10T11:43:27.931Z,6412.00
2019-06-10T11:45:22.265Z,6596.00
2019-06-10T11:46:20.683Z,6764.00
2019-06-10T11:48:13.483Z,7188.00
2019-06-10T11:49:13.412Z,7232.00
2019-06-10T11:51:06.207Z,7084.00
2019-06-10T11:52:06.138Z,6828.00
2019-06-10T11:53:59.017Z,6412.00
2019-06-10T11:55:11.975Z,6204.00
2019-06-10T11:56:54.629Z,5880.00
2019-06-10T11:57:54.911Z,5804.00
2019-06-10T11:59:44.382Z,5696.00
2019-06-10T12:00:44.299Z,5624.00
2019-06-10T12:02:37.121Z,5784.00
2019-06-10T12:03:37.025Z,5936.00
2019-06-10T12:05:32.445Z,6076.00
2019-06-10T12:06:29.746Z,6060.00
2019-06-10T12:08:23.609Z,6184.00
2019-06-10T12:09:22.978Z,6236.00
2019-06-10T12:11:15.287Z,6120.00
2019-06-10T12:12:15.219Z,6052.00
2019-06-10T12:14:08.007Z,5912.00
2019-06-10T12:15:07.946Z,5876.00
2019-06-10T12:17:29.740Z,5752.00
2019-06-10T12:18:05.941Z,5716.00
2019-06-10T12:19:56.533Z,5700.00
2019-06-10T12:20:59.206Z,5696.00
2019-06-10T12:22:46.187Z,5820.00
2019-06-10T12:23:46.124Z,5740.00
2019-06-10T12:25:39.785Z,5712.00
2019-06-10T12:26:38.890Z,5748.00
2019-06-10T12:28:32.668Z,5780.00
2019-06-10T12:29:31.652Z,5736.00
2019-06-10T12:31:24.434Z,5732.00
2019-06-10T12:32:24.363Z,5736.00
2019-06-10T12:34:17.226Z,5712.00
2019-06-10T12:35:17.600Z,5688.00
2019-06-10T12:37:13.048Z,5632.00
2019-06-10T12:38:09.899Z,5592.00
2019-06-10T12:40:05.639Z,5468.00
2019-06-10T12:41:07.967Z,5428.00
2019-06-10T12:42:58.033Z,5436.00
2019-06-10T12:43:56.671Z,5424.00
2019-06-10T12:45:49.001Z,5464.00
2019-06-10T12:46:48.921Z,5488.00
2019-06-10T12:48:42.692Z,5556.00
2019-06-10T12:49:42.801Z,5584.00
2019-06-10T12:51:33.491Z,5596.00
2019-06-10T12:52:33.424Z,5608.00
2019-06-10T12:54:26.238Z,5640.00
2019-06-10T12:55:38.440Z,5712.00
2019-06-10T12:57:18.909Z,5880.00
2019-06-10T12:58:18.915Z,5972.00
2019-06-10T13:00:20.488Z,6064.00
2019-06-10T13:01:11.629Z,6056.00
2019-06-10T13:03:05.407Z,6024.00
2019-06-10T13:04:07.342Z,6000.00
2019-06-10T13:05:57.755Z,5984.00
2019-06-10T13:06:57.636Z,6016.00
2019-06-10T13:08:49.869Z,6008.00
2019-06-10T13:09:49.790Z,6096.00
2019-06-10T13:11:43.331Z,5976.00
2019-06-10T13:12:42.984Z,5928.00
2019-06-10T13:14:35.364Z,5808.00
2019-06-10T13:15:35.398Z,5688.00
2019-06-10T13:17:28.105Z,5384.00
2019-06-10T13:18:28.037Z,5184.00
2019-06-10T13:20:22.939Z,4892.00
2019-06-10T13:21:22.801Z,4560.00
2019-06-10T13:23:23.619Z,4064.00
2019-06-10T13:24:14.047Z,3916.00
2019-06-10T13:26:10.900Z,3732.00
2019-06-10T13:27:07.008Z,3852.00
2019-06-10T13:28:59.085Z,4080.00
2019-06-10T13:29:59.896Z,3964.00
2019-06-10T13:31:53.382Z,4560.00
2019-06-10T13:32:52.675Z,4868.00
2019-06-10T13:34:44.537Z,5164.00
2019-06-10T13:35:44.526Z,5104.00
2019-06-10T13:37:37.290Z,4748.00
2019-06-10T13:38:37.204Z,4616.00
2019-06-10T13:40:31.895Z,4644.00
2019-06-10T13:41:30.025Z,4588.00
2019-06-10T13:43:23.324Z,4588.00
2019-06-10T13:44:22.884Z,4408.00
2019-06-10T13:46:15.430Z,3924.00
2019-06-10T13:47:15.407Z,4228.00
2019-06-10T13:49:10.681Z,4144.00
2019-06-10T13:50:11.014Z,4204.00
2019-06-10T13:52:05.052Z,4356.00
2019-06-10T13:53:03.309Z,4360.00
2019-06-10T13:54:53.768Z,4608.00
2019-06-10T13:56:14.412Z,4584.00
2019-06-10T13:57:46.466Z,4748.00
2019-06-10T13:58:46.570Z,4888.00
2019-06-10T14:00:45.217Z,5052.00
2019-06-10T14:01:39.153Z,4964.00
2019-06-10T14:03:32.800Z,4932.00
2019-06-10T14:04:33.476Z,5104.00
2019-06-10T14:06:39.770Z,4636.00
2019-06-10T14:07:24.629Z,4572.00
2019-06-10T14:09:17.480Z,4576.00
2019-06-10T14:10:18.415Z,4440.00
2019-06-10T14:12:12.509Z,4220.00
2019-06-10T14:13:11.718Z,4140.00
2019-06-10T14:15:06.085Z,3912.00
2019-06-10T14:16:03.455Z,3960.00
2019-06-10T14:17:55.697Z,3848.00
2019-06-10T14:18:55.619Z,3920.00
2019-06-10T14:20:48.403Z,3984.00
2019-06-10T14:21:48.343Z,3692.00
2019-06-10T14:23:42.394Z,3592.00
2019-06-10T14:24:42.130Z,3520.00
2019-06-10T14:26:40.863Z,3404.00
2019-06-10T14:27:33.979Z,3076.00
2019-06-10T14:29:26.793Z,2968.00
2019-06-10T14:30:26.724Z,3004.00
2019-06-10T14:32:22.264Z,2932.00
2019-06-10T14:33:19.695Z,2972.00
2019-06-10T14:35:17.226Z,2960.00
2019-06-10T14:36:15.814Z,2940.00
2019-06-10T14:38:06.492Z,2876.00
2019-06-10T14:39:06.148Z,2824.00
2019-06-10T14:40:57.993Z,2756.00
2019-06-10T14:41:59.418Z,2800.00
2019-06-10T14:43:52.969Z,2864.00
2019-06-10T14:44:52.683Z,2932.00
2019-06-10T14:46:43.653Z,2924.00
2019-06-10T14:47:43.586Z,2940.00
2019-06-10T14:49:36.397Z,3100.00
2019-06-10T14:50:36.326Z,3168.00
2019-06-10T14:52:29.120Z,2952.00
2019-06-10T14:53:29.068Z,3040.00
2019-06-10T14:55:23.200Z,2972.00
2019-06-10T14:56:23.520Z,3124.00
2019-06-10T14:58:18.397Z,3244.00
2019-06-10T14:59:17.775Z,3360.00
2019-06-10T15:01:09.511Z,3536.00
2019-06-10T15:02:07.775Z,3608.00
2019-06-10T15:04:00.118Z,3648.00
2019-06-10T15:05:02.650Z,3648.00
2019-06-10T15:06:53.672Z,3608.00
2019-06-10T15:07:52.952Z,3564.00
2019-06-10T15:09:45.523Z,3212.00
2019-06-10T15:10:45.441Z,3152.00
2019-06-10T15:12:38.266Z,2468.00
2019-06-10T15:13:38.202Z,2472.00
2019-06-10T15:15:33.027Z,2364.00
2019-06-10T15:16:33.451Z,2404.00
2019-06-10T15:18:24.079Z,2424.00
2019-06-10T15:19:28.295Z,2408.00
2019-06-10T15:21:17.332Z,2204.00
2019-06-10T15:22:17.044Z,2224.00
2019-06-10T15:24:09.866Z,2148.00
2019-06-10T15:25:09.150Z,2524.00
2019-06-10T15:27:10.133Z,2136.00
2019-06-10T15:28:03.274Z,2172.00
2019-06-10T15:29:54.691Z,1916.00
2019-06-10T15:30:54.607Z,1780.00
2019-06-10T15:32:47.402Z,1700.00
2019-06-10T15:33:47.337Z,1732.00
2019-06-10T15:35:42.639Z,1820.00
2019-06-10T15:36:40.060Z,1848.00
2019-06-10T15:38:32.993Z,1856.00
2019-06-10T15:39:33.383Z,1860.00
2019-06-10T15:41:25.583Z,1856.00
2019-06-10T15:42:25.508Z,1824.00
2019-06-10T15:44:37.253Z,1840.00
2019-06-10T15:45:19.582Z,1948.00
2019-06-10T15:47:13.940Z,1648.00
2019-06-10T15:48:15.554Z,1704.00
2019-06-10T15:50:03.873Z,1508.00
2019-06-10T15:51:03.785Z,1396.00
2019-06-10T15:52:56.574Z,1424.00
2019-06-10T15:53:56.512Z,1456.00
2019-06-10T15:56:10.294Z,1464.00
2019-06-10T15:56:52.928Z,1404.00
2019-06-10T15:58:42.914Z,1532.00
2019-06-10T15:59:42.777Z,1556.00
2019-06-10T16:01:34.836Z,1552.00
2019-06-10T16:02:34.750Z,1304.00
2019-06-10T16:04:29.918Z,1300.00
2019-06-10T16:05:27.473Z,1308.00
2019-06-10T16:07:20.953Z,1328.00
2019-06-10T16:08:20.294Z,1312.00
2019-06-10T16:10:17.817Z,1216.00
2019-06-10T16:11:16.305Z,1180.00
2019-06-10T16:13:05.717Z,1188.00
2019-06-10T16:14:05.661Z,1232.00
2019-06-10T16:15:58.459Z,1356.00
2019-06-10T16:16:58.433Z,1380.00
2019-06-10T16:18:52.803Z,1372.00
2019-06-10T16:19:53.114Z,1352.00
2019-06-10T16:21:43.905Z,1396.00
2019-06-10T16:22:43.834Z,1484.00
2019-06-10T16:24:36.674Z,1676.00
2019-06-10T16:25:36.640Z,1648.00
2019-06-10T16:27:44.459Z,1932.00
2019-06-10T16:28:29.453Z,2192.00
2019-06-10T16:30:23.213Z,2400.00
2019-06-10T16:31:26.662Z,2464.00
2019-06-10T16:33:14.989Z,2372.00
2019-06-10T16:34:14.908Z,2232.00
2019-06-10T16:36:07.783Z,2024.00
2019-06-10T16:37:07.672Z,1960.00
2019-06-10T16:39:00.663Z,1884.00
2019-06-10T16:40:03.157Z,1864.00
2019-06-10T16:41:53.487Z,1816.00
2019-06-10T16:42:53.407Z,1792.00
2019-06-10T16:44:46.221Z,1748.00
2019-06-10T16:45:46.173Z,1736.00
2019-06-10T16:47:38.913Z,1712.00
2019-06-10T16:48:38.839Z,1700.00
2019-06-10T16:50:33.972Z,1688.00
2019-06-10T16:51:31.625Z,1676.00
2019-06-10T16:53:28.827Z,1648.00
2019-06-10T16:54:25.601Z,1632.00
2019-06-10T16:56:17.730Z,1612.00
2019-06-10T16:57:17.720Z,1600.00
2019-06-10T16:59:12.200Z,1584.00
2019-06-10T17:00:11.940Z,1572.00
2019-06-10T17:02:02.684Z,1540.00
2019-06-10T17:03:02.578Z,1528.00
2019-06-10T17:04:58.375Z,1496.00
2019-06-10T17:05:55.298Z,1484.00
2019-06-10T17:07:48.271Z,1460.00
2019-06-10T17:08:48.157Z,1452.00
2019-06-10T17:10:43.503Z,1436.00
2019-06-10T17:11:42.611Z,1416.00
2019-06-10T17:13:33.846Z,1404.00
2019-06-10T17:14:33.862Z,1396.00
2019-06-10T17:16:29.240Z,1384.00
2019-06-10T17:17:27.896Z,1380.00
2019-06-10T17:19:20.566Z,1356.00
2019-06-10T17:20:20.384Z,1280.00
2019-06-10T17:22:12.637Z,1244.00
2019-06-10T17:23:12.347Z,1216.00
2019-06-10T17:25:04.850Z,1148.00
2019-06-10T17:26:04.799Z,1200.00
2019-06-10T17:27:58.329Z,1248.00
2019-06-10T17:28:58.068Z,1256.00
2019-06-10T17:30:52.876Z,1260.00
2019-06-10T17:31:53.016Z,1252.00
2019-06-10T17:33:43.726Z,1232.00
2019-06-10T17:34:43.641Z,1216.00
2019-06-10T17:36:36.553Z,1192.00
2019-06-10T17:37:36.377Z,1144.00
2019-06-10T17:39:29.925Z,1128.00
2019-06-10T17:40:29.313Z,1144.00
2019-06-10T17:42:27.818Z,1128.00
2019-06-10T17:43:23.329Z,1132.00
2019-06-10T17:45:14.848Z,1116.00
2019-06-10T17:46:14.759Z,1088.00